Time;durP1;ratioP1;P1;durP2;ratioP2;P2;SDS_P1;SDS_P2;PMS_P1;PMS_P2;Temp;Humidity;BMP_temperature;BMP_pressure;BME280_temperature;BME280_humidity;BME280_pressure;Samples;Min_cycle;Max_cycle;Signal;HPM_P1;HPM_P2
2022/01/20 00:02:02;;;;;;;13.65;9.80;;;3.60;99.90;;;;;;2053389;28;20102;-70
2022/01/20 00:03:11;;;;;;;12.48;9.45;;;3.60;99.90;;;;;;2058074;28;20039;-68
2022/01/20 00:06:23;;;;;;;13.23;9.50;;;3.70;99.90;;;;;;2096434;28;20017;-71
2022/01/20 00:23:07;;;;;;;12.85;9.27;;;3.80;99.90;;;;;;2087690;28;20025;-71
2022/01/20 00:26:31;;;;;;;11.85;8.77;;;3.80;99.90;;;;;;2073284;28;20145;-70
2022/01/20 00:27:35;;;;;;;12.57;9.00;;;3.80;99.90;;;;;;2081590;28;20550;-71
2022/01/20 00:28:46;;;;;;;13.00;9.10;;;3.80;99.90;;;;;;2082597;28;20025;-70
2022/01/20 00:31:05;;;;;;;12.20;8.57;;;3.80;99.90;;;;;;2089902;28;19967;-71
2022/01/20 00:32:11;;;;;;;13.48;9.45;;;3.80;99.90;;;;;;2080969;28;20021;-70
2022/01/20 00:33:31;;;;;;;12.30;8.50;;;3.70;99.90;;;;;;2074907;28;20089;-70
2022/01/20 00:35:21;;;;;;;11.88;8.77;;;3.70;99.90;;;;;;2085800;28;20047;-71
2022/01/20 00:37:16;;;;;;;11.88;9.02;;;3.70;99.90;;;;;;2082368;28;20674;-70
2022/01/20 00:38:22;;;;;;;11.98;9.20;;;3.70;99.90;;;;;;2081727;28;20051;-71
2022/01/20 00:39:25;;;;;;;13.40;9.68;;;3.70;99.90;;;;;;2084701;28;20682;-71
2022/01/20 00:40:26;;;;;;;12.13;9.15;;;3.70;99.90;;;;;;2089038;28;20054;-71
2022/01/20 00:41:27;;;;;;;11.77;8.80;;;3.70;99.90;;;;;;2083342;28;20492;-71
2022/01/20 00:42:28;;;;;;;10.85;8.73;;;3.70;99.90;;;;;;2097032;28;20021;-71
2022/01/20 00:43:32;;;;;;;12.25;8.85;;;3.70;99.90;;;;;;2094544;28;20025;-71
2022/01/20 00:44:34;;;;;;;12.50;9.25;;;3.70;99.90;;;;;;2088693;28;20044;-71
2022/01/20 00:45:35;;;;;;;13.80;9.70;;;3.70;99.90;;;;;;2086397;28;20036;-71
2022/01/20 00:46:36;;;;;;;12.82;9.60;;;3.70;99.90;;;;;;2088199;28;20025;-71
2022/01/20 00:47:38;;;;;;;12.10;8.90;;;3.70;99.90;;;;;;2078068;28;20022;-71
2022/01/20 00:48:40;;;;;;;15.13;9.52;;;3.70;99.90;;;;;;2080222;28;20033;-71
2022/01/20 00:49:41;;;;;;;11.88;9.02;;;3.70;99.90;;;;;;2064017;28;20497;-71
2022/01/20 00:50:42;;;;;;;11.82;8.73;;;3.70;99.90;;;;;;2080596;28;20030;-71
2022/01/20 00:51:43;;;;;;;12.50;8.90;;;3.70;99.90;;;;;;2085501;28;20044;-71
2022/01/20 01:09:21;;;;;;;11.18;8.13;;;3.80;99.90;;;;;;2097404;28;20024;-71
2022/01/20 01:10:28;;;;;;;11.02;8.63;;;3.70;99.90;;;;;;2097382;28;20032;-72
2022/01/20 01:11:28;;;;;;;12.85;8.45;;;3.70;99.90;;;;;;2097186;28;20033;-71
2022/01/20 01:12:44;;;;;;;11.05;8.18;;;3.70;99.90;;;;;;2097239;28;20042;-69
2022/01/20 01:13:45;;;;;;;10.70;8.02;;;3.80;99.90;;;;;;2088099;28;20037;-70
2022/01/20 01:14:50;;;;;;;10.30;7.68;;;3.80;99.90;;;;;;2087499;28;20497;-71
2022/01/20 01:15:51;;;;;;;10.32;7.75;;;3.80;99.90;;;;;;2075987;28;20124;-70
2022/01/20 01:21:07;;;;;;;10.95;8.27;;;3.80;99.90;;;;;;2085317;28;20063;-71
2022/01/20 01:22:21;;;;;;;9.88;7.97;;;3.80;99.90;;;;;;2089799;28;20044;-72
2022/01/20 01:23:22;;;;;;;12.77;8.13;;;3.80;99.90;;;;;;2080062;28;20025;-71
2022/01/20 01:24:23;;;;;;;11.88;8.00;;;3.80;99.90;;;;;;2073024;28;20555;-69
2022/01/20 01:25:23;;;;;;;12.52;8.18;;;3.80;99.90;;;;;;2085220;28;20029;-72
2022/01/20 01:26:27;;;;;;;11.13;7.50;;;3.80;99.90;;;;;;2083949;28;20017;-69
2022/01/20 01:27:33;;;;;;;10.07;7.78;;;3.80;99.90;;;;;;2084440;28;20024;-71
2022/01/20 01:28:35;;;;;;;11.77;8.45;;;3.80;99.90;;;;;;2077532;28;20022;-69
2022/01/20 01:31:12;;;;;;;11.98;8.13;;;3.80;99.90;;;;;;2089671;28;20013;-69
2022/01/20 01:32:12;;;;;;;12.00;7.80;;;3.80;99.90;;;;;;2090272;28;20125;-71
2022/01/20 01:33:13;;;;;;;11.23;7.60;;;3.90;99.90;;;;;;2086675;28;20171;-69
2022/01/20 01:34:14;;;;;;;11.90;7.95;;;3.90;99.90;;;;;;2081940;28;20041;-71
2022/01/20 01:35:17;;;;;;;11.43;8.10;;;3.90;99.90;;;;;;2086252;28;20017;-71
2022/01/20 01:36:20;;;;;;;12.35;7.90;;;3.90;99.90;;;;;;2074901;28;20025;-71
2022/01/20 01:38:22;;;;;;;10.35;7.70;;;3.90;99.90;;;;;;2086119;28;20685;-69
2022/01/20 01:38:45;;;;;;;10.38;7.70;;;3.90;99.90;;;;;;2080789;28;20029;-70
2022/01/20 01:39:45;;;;;;;11.70;7.55;;;3.90;99.90;;;;;;2071810;28;20061;-71
2022/01/20 01:40:46;;;;;;;12.00;7.88;;;3.90;99.90;;;;;;2078590;28;20028;-70
2022/01/20 01:41:47;;;;;;;11.35;7.93;;;3.90;99.90;;;;;;2079617;28;20500;-71
2022/01/20 01:42:49;;;;;;;10.75;7.72;;;3.90;99.90;;;;;;2079947;28;20032;-70
2022/01/20 01:43:50;;;;;;;11.00;7.60;;;4.00;99.90;;;;;;2087950;28;20512;-69
2022/01/20 01:44:53;;;;;;;10.23;7.30;;;4.00;99.90;;;;;;2080030;28;20032;-69
2022/01/20 01:45:54;;;;;;;11.43;7.68;;;4.00;99.90;;;;;;2086968;28;20060;-70
2022/01/20 01:46:56;;;;;;;13.15;8.00;;;4.00;99.90;;;;;;2086865;28;20029;-72
2022/01/20 01:47:59;;;;;;;10.57;7.97;;;4.00;99.90;;;;;;2087464;28;20025;-72
2022/01/20 01:49:04;;;;;;;10.75;7.88;;;4.00;99.90;;;;;;2081640;28;20044;-70
2022/01/20 01:50:05;;;;;;;10.02;7.70;;;4.00;99.90;;;;;;2090116;28;20029;-71
2022/01/20 01:51:07;;;;;;;11.07;7.93;;;3.90;99.90;;;;;;2089056;28;20025;-72
2022/01/20 01:52:08;;;;;;;11.63;7.80;;;3.90;99.90;;;;;;2080878;28;20022;-70
2022/01/20 01:53:09;;;;;;;10.13;7.70;;;4.00;99.90;;;;;;2081423;28;20025;-71
2022/01/20 01:54:12;;;;;;;11.65;7.60;;;4.00;99.90;;;;;;2080420;28;20045;-72
2022/01/20 01:55:13;;;;;;;9.70;7.60;;;4.00;99.90;;;;;;2081210;28;20029;-70
2022/01/20 01:56:16;;;;;;;10.65;7.38;;;4.00;99.90;;;;;;2080500;28;20026;-70
2022/01/20 01:57:17;;;;;;;10.32;7.10;;;4.00;99.90;;;;;;2088607;28;20028;-72
2022/01/20 01:58:19;;;;;;;11.55;7.57;;;4.00;99.90;;;;;;2087924;28;20143;-71
2022/01/20 01:59:49;;;;;;;;;;;4.00;99.90;;;;;;2077497;28;20155;-70
2022/01/20 02:00:58;;;;;;;11.55;6.82;;;4.00;99.90;;;;;;2087995;28;19909;-72
2022/01/20 02:01:59;;;;;;;11.18;6.72;;;4.00;99.90;;;;;;2080413;28;20048;-71
2022/01/20 02:03:01;;;;;;;12.32;7.15;;;4.00;99.90;;;;;;2095919;28;20108;-69
2022/01/20 02:04:12;;;;;;;12.73;7.50;;;4.10;99.90;;;;;;2073799;28;20092;-71
2022/01/20 02:05:19;;;;;;;13.88;7.28;;;4.10;99.90;;;;;;2085823;28;20087;-70
2022/01/20 02:18:12;;;;;;;17.88;6.05;;;4.20;99.90;;;;;;2096718;28;20041;-71
2022/01/20 02:19:13;;;;;;;17.67;6.15;;;4.20;99.90;;;;;;2094410;28;20041;-71
2022/01/20 02:20:17;;;;;;;17.45;5.80;;;4.20;99.90;;;;;;2094982;28;20045;-70
2022/01/20 02:21:24;;;;;;;21.48;5.97;;;4.20;99.90;;;;;;2092184;28;20140;-71
2022/01/20 02:22:29;;;;;;;19.05;6.20;;;4.20;99.90;;;;;;2091958;28;20021;-70
2022/01/20 02:23:48;;;;;;;15.90;5.90;;;4.20;99.90;;;;;;2088357;28;20021;-71
2022/01/20 02:24:48;;;;;;;19.92;5.93;;;4.20;99.90;;;;;;2086162;28;20048;-71
2022/01/20 02:25:49;;;;;;;20.63;5.75;;;4.20;99.90;;;;;;2086785;28;20077;-71
2022/01/20 02:26:50;;;;;;;23.05;6.25;;;4.20;99.90;;;;;;2086062;28;20181;-71
2022/01/20 02:28:06;;;;;;;21.75;5.82;;;4.20;99.90;;;;;;2092703;28;20075;-72
2022/01/20 02:29:07;;;;;;;19.90;5.20;;;4.20;99.90;;;;;;2082860;28;20028;-71
2022/01/20 02:30:08;;;;;;;17.00;5.30;;;4.20;99.90;;;;;;2081673;28;20104;-71
2022/01/20 02:31:09;;;;;;;19.25;5.80;;;4.20;99.90;;;;;;2081740;28;20551;-72
2022/01/20 02:32:10;;;;;;;19.30;5.28;;;4.20;99.90;;;;;;2075178;28;20022;-71
2022/01/20 02:33:16;;;;;;;17.70;5.32;;;4.20;99.90;;;;;;2088597;28;20025;-70
2022/01/20 02:34:20;;;;;;;22.73;5.50;;;4.20;99.90;;;;;;2083884;28;20035;-71
2022/01/20 02:35:22;;;;;;;20.55;5.18;;;4.20;99.90;;;;;;2081255;28;20031;-71
2022/01/20 02:36:23;;;;;;;18.48;5.10;;;4.20;99.90;;;;;;2077008;28;20084;-71
2022/01/20 02:37:24;;;;;;;24.13;5.18;;;4.20;99.90;;;;;;2076407;28;20029;-71
2022/01/20 02:45:35;;;;;;;20.27;4.90;;;4.20;99.90;;;;;;2083584;28;20092;-71
2022/01/20 02:46:38;;;;;;;17.42;4.45;;;4.20;99.90;;;;;;2088150;28;20800;-72
2022/01/20 02:47:39;;;;;;;21.52;5.10;;;4.20;99.90;;;;;;2089266;28;20056;-71
2022/01/20 02:48:40;;;;;;;19.45;4.32;;;4.20;99.90;;;;;;2087223;28;20480;-71
2022/01/20 02:49:41;;;;;;;20.40;4.97;;;4.20;99.90;;;;;;2092193;28;20067;-70
2022/01/20 02:50:42;;;;;;;19.48;4.70;;;4.20;99.90;;;;;;2087550;28;20074;-71
2022/01/20 02:51:51;;;;;;;21.30;4.90;;;4.20;99.90;;;;;;2075479;28;20022;-71
2022/01/20 02:52:52;;;;;;;23.88;4.65;;;4.20;99.90;;;;;;2088804;28;20033;-71
2022/01/20 02:53:53;;;;;;;22.98;5.10;;;4.10;99.90;;;;;;2080815;28;20042;-70
2022/01/20 02:54:54;;;;;;;17.30;4.63;;;4.10;99.90;;;;;;2081223;28;20658;-70
2022/01/20 02:55:56;;;;;;;18.58;4.60;;;4.10;99.90;;;;;;2081071;28;20064;-70
2022/01/20 02:56:56;;;;;;;23.52;5.00;;;4.10;99.90;;;;;;2090155;28;20562;-70
2022/01/20 02:57:58;;;;;;;22.10;4.65;;;4.10;99.90;;;;;;2089870;28;20056;-69
2022/01/20 02:58:58;;;;;;;19.15;4.80;;;4.10;99.90;;;;;;2082645;28;20029;-71
2022/01/20 02:59:59;;;;;;;20.98;4.78;;;4.10;99.90;;;;;;2081863;28;20499;-69
2022/01/20 03:01:00;;;;;;;25.45;4.97;;;4.10;99.90;;;;;;2081813;28;20108;-70
2022/01/20 03:02:03;;;;;;;24.13;4.72;;;4.10;99.90;;;;;;2081648;28;20021;-72
2022/01/20 03:03:03;;;;;;;18.65;4.50;;;4.00;99.90;;;;;;2082193;28;20052;-70
2022/01/20 03:04:04;;;;;;;20.00;3.97;;;4.00;99.90;;;;;;2081485;28;20507;-68
2022/01/20 03:05:07;;;;;;;17.20;4.65;;;4.00;99.90;;;;;;2089315;28;20503;-70
2022/01/20 03:06:09;;;;;;;23.27;4.55;;;4.00;99.90;;;;;;2082898;28;20747;-70
2022/01/20 03:07:10;;;;;;;19.38;4.15;;;4.00;99.90;;;;;;2089147;28;20028;-73
2022/01/20 03:08:11;;;;;;;17.40;4.50;;;4.00;99.90;;;;;;2097224;28;20402;-72
2022/01/20 03:09:11;;;;;;;26.17;5.05;;;4.00;99.90;;;;;;2087889;28;20028;-72
2022/01/20 03:10:12;;;;;;;16.55;4.00;;;4.00;99.90;;;;;;2083173;28;20076;-70
2022/01/20 03:11:14;;;;;;;21.48;4.25;;;4.00;99.90;;;;;;2096464;28;20103;-70
2022/01/20 03:12:14;;;;;;;20.98;4.32;;;4.00;99.90;;;;;;2091289;28;20021;-70
2022/01/20 03:13:15;;;;;;;19.63;4.78;;;4.00;99.90;;;;;;2081552;28;20084;-71
2022/01/20 03:14:17;;;;;;;20.05;4.47;;;4.00;99.90;;;;;;2080621;28;20102;-71
2022/01/20 03:15:18;;;;;;;19.73;4.32;;;4.00;99.90;;;;;;2097502;28;20031;-70
2022/01/20 03:16:19;;;;;;;26.08;4.85;;;4.00;99.90;;;;;;2097554;28;20021;-70
2022/01/20 03:17:20;;;;;;;18.98;4.43;;;4.00;99.90;;;;;;2089430;28;20021;-69
2022/01/20 03:18:20;;;;;;;18.67;4.03;;;4.00;99.90;;;;;;2089683;28;20033;-69
2022/01/20 03:19:21;;;;;;;17.52;4.32;;;4.00;99.90;;;;;;2098698;28;20110;-69
2022/01/20 03:20:22;;;;;;;20.75;4.60;;;3.90;99.90;;;;;;2089389;28;20060;-69
2022/01/20 03:21:22;;;;;;;20.48;4.07;;;3.90;99.90;;;;;;2089219;28;20039;-69
2022/01/20 03:22:23;;;;;;;19.40;4.38;;;3.90;99.90;;;;;;2097840;28;20039;-69
2022/01/20 03:23:23;;;;;;;19.80;4.13;;;3.80;99.90;;;;;;2088415;28;20027;-69
2022/01/20 03:24:24;;;;;;;22.42;4.30;;;3.80;99.90;;;;;;2081016;28;20044;-70
2022/01/20 03:25:25;;;;;;;19.75;3.80;;;3.80;99.90;;;;;;2080868;28;20501;-70
2022/01/20 03:26:26;;;;;;;24.27;4.30;;;3.80;99.90;;;;;;2080889;28;20370;-70
2022/01/20 03:27:26;;;;;;;24.95;4.18;;;3.80;99.90;;;;;;2080617;28;20037;-70
2022/01/20 03:28:27;;;;;;;20.20;4.40;;;3.70;99.90;;;;;;2089055;28;20024;-70
2022/01/20 03:29:28;;;;;;;22.25;4.82;;;3.70;99.90;;;;;;2080799;28;20068;-70
2022/01/20 03:30:29;;;;;;;19.70;4.05;;;3.60;99.90;;;;;;2072599;28;20030;-69
2022/01/20 03:31:31;;;;;;;20.15;4.55;;;3.60;99.90;;;;;;2080750;28;20500;-69
2022/01/20 03:32:33;;;;;;;17.70;4.43;;;3.60;99.90;;;;;;2073185;28;20088;-73
2022/01/20 03:33:34;;;;;;;20.63;4.25;;;3.60;99.90;;;;;;2080841;28;20025;-72
2022/01/20 03:34:35;;;;;;;23.55;4.05;;;3.50;99.90;;;;;;2081307;28;20116;-68
2022/01/20 03:35:41;;;;;;;26.17;4.43;;;3.50;99.90;;;;;;2081894;28;20029;-69
2022/01/20 03:37:04;;;;;;;19.38;4.00;;;3.50;99.90;;;;;;2072681;28;20041;-69
2022/01/20 03:38:15;;;;;;;19.25;3.83;;;3.50;99.90;;;;;;2085246;28;20123;-69
2022/01/20 03:39:16;;;;;;;22.52;4.00;;;3.50;99.90;;;;;;2080772;28;20039;-69
2022/01/20 03:40:17;;;;;;;19.70;3.70;;;3.50;99.90;;;;;;2080713;28;20468;-69
2022/01/20 03:41:19;;;;;;;20.70;3.88;;;3.50;99.90;;;;;;2080856;28;20085;-69
2022/01/20 03:42:20;;;;;;;23.48;3.90;;;3.50;99.90;;;;;;2080562;28;20018;-69
2022/01/20 03:43:21;;;;;;;19.73;4.05;;;3.50;99.90;;;;;;2080205;28;20052;-69
2022/01/20 03:44:22;;;;;;;21.08;3.88;;;3.50;99.90;;;;;;2089072;28;20033;-68
2022/01/20 03:45:27;;;;;;;23.48;4.00;;;3.40;99.90;;;;;;2089114;28;20744;-70
2022/01/20 03:46:28;;;;;;;19.02;3.42;;;3.40;99.90;;;;;;2097293;28;20028;-71
2022/01/20 03:47:28;;;;;;;21.35;3.92;;;3.40;99.90;;;;;;2097979;28;20059;-70
2022/01/20 03:48:30;;;;;;;24.08;3.95;;;3.40;99.90;;;;;;2097298;28;20036;-69
2022/01/20 03:49:53;;;;;;;20.10;3.80;;;3.40;99.90;;;;;;2089244;28;20025;-70
2022/01/20 03:51:02;;;;;;;21.38;3.75;;;3.40;99.90;;;;;;2083980;28;20511;-69
2022/01/20 03:52:06;;;;;;;23.25;3.90;;;3.40;99.90;;;;;;2081793;28;20021;-71
2022/01/20 03:53:07;;;;;;;20.73;3.13;;;3.30;99.90;;;;;;2072856;28;20042;-71
2022/01/20 03:54:09;;;;;;;21.15;3.10;;;3.30;99.90;;;;;;2072445;28;20094;-71
2022/01/20 03:55:29;;;;;;;25.83;4.18;;;3.30;99.90;;;;;;2083696;28;20112;-70
2022/01/20 03:56:37;;;;;;;20.08;3.83;;;3.30;99.90;;;;;;2092389;28;20035;-70
2022/01/20 03:57:56;;;;;;;28.13;3.53;;;3.30;99.90;;;;;;2097650;28;20068;-70
2022/01/20 03:59:04;;;;;;;20.52;3.15;;;3.20;99.90;;;;;;2089077;28;20025;-70
2022/01/20 04:00:05;;;;;;;20.52;3.40;;;3.20;99.90;;;;;;2080917;28;20025;-70
2022/01/20 04:01:15;;;;;;;22.35;3.97;;;3.20;99.90;;;;;;2090636;28;20051;-69
2022/01/20 04:02:34;;;;;;;19.30;3.63;;;3.20;99.90;;;;;;2089652;28;20091;-73
2022/01/20 04:03:44;;;;;;;17.50;3.17;;;3.20;99.90;;;;;;2081970;28;20030;-71
2022/01/20 04:04:54;;;;;;;;;;;3.20;99.90;;;;;;2082520;28;20029;-70
2022/01/20 04:06:04;;;;;;;24.98;3.80;;;3.20;99.90;;;;;;2082016;28;19909;-70
2022/01/20 04:07:13;;;;;;;17.42;3.47;;;3.20;99.90;;;;;;2081121;28;20026;-70
2022/01/20 04:08:14;;;;;;;16.20;3.50;;;3.20;99.90;;;;;;2082066;28;20029;-70
2022/01/20 04:09:15;;;;;;;18.85;3.28;;;3.10;99.90;;;;;;2089158;28;20029;-71
2022/01/20 04:10:15;;;;;;;19.55;3.20;;;3.20;99.90;;;;;;2097173;28;20090;-70
2022/01/20 04:11:18;;;;;;;21.55;3.15;;;3.10;99.90;;;;;;2080641;28;20038;-71
2022/01/20 04:12:19;;;;;;;17.45;2.80;;;3.10;99.90;;;;;;2080637;28;20168;-70
2022/01/20 04:13:20;;;;;;;16.23;3.10;;;3.10;99.90;;;;;;2080093;28;20116;-68
2022/01/20 04:14:23;;;;;;;16.95;3.45;;;3.00;99.90;;;;;;2088774;28;20029;-72
2022/01/20 04:15:28;;;;;;;21.27;3.40;;;3.00;99.90;;;;;;2089130;28;20053;-71
2022/01/20 04:16:37;;;;;;;13.00;3.10;;;3.00;99.90;;;;;;2088679;28;20040;-72
2022/01/20 04:17:41;;;;;;;21.23;3.17;;;3.00;99.90;;;;;;2090034;28;20050;-70
2022/01/20 04:18:53;;;;;;;17.27;3.03;;;3.00;99.90;;;;;;2080625;28;20083;-71
2022/01/20 04:19:54;;;;;;;15.60;3.00;;;3.00;99.90;;;;;;2067079;28;20037;-70
2022/01/20 04:20:55;;;;;;;18.00;3.42;;;3.00;99.90;;;;;;2072672;28;20037;-69
2022/01/20 04:21:56;;;;;;;18.27;3.05;;;3.00;99.90;;;;;;2080855;28;20101;-69
2022/01/20 04:22:57;;;;;;;17.85;3.45;;;3.00;99.90;;;;;;2089160;28;20032;-70
2022/01/20 04:23:59;;;;;;;16.00;3.83;;;3.00;99.90;;;;;;2088195;28;20544;-71
2022/01/20 04:25:00;;;;;;;21.17;3.95;;;3.00;99.90;;;;;;2080544;28;20021;-70
2022/01/20 04:26:01;;;;;;;20.83;3.47;;;3.00;99.90;;;;;;2088621;28;20029;-71
2022/01/20 04:27:01;;;;;;;14.13;3.35;;;3.00;99.90;;;;;;2088638;28;20066;-69
2022/01/20 04:28:03;;;;;;;18.23;3.63;;;3.10;99.90;;;;;;2096971;28;20032;-70
2022/01/20 04:29:07;;;;;;;16.70;3.63;;;3.10;99.90;;;;;;2081038;28;20025;-71
2022/01/20 04:30:07;;;;;;;15.98;3.80;;;3.10;99.90;;;;;;2080794;28;20025;-71
2022/01/20 04:31:08;;;;;;;13.10;3.38;;;3.10;99.90;;;;;;2088630;28;20021;-71
2022/01/20 04:32:09;;;;;;;14.98;3.30;;;3.10;99.90;;;;;;2088376;28;20029;-71
2022/01/20 04:33:09;;;;;;;16.75;3.42;;;3.00;99.90;;;;;;2080527;28;20029;-71
2022/01/20 04:34:11;;;;;;;13.00;3.22;;;3.00;99.90;;;;;;2071812;28;20437;-72
2022/01/20 04:35:12;;;;;;;14.68;3.70;;;3.00;99.90;;;;;;2080535;28;20107;-71
2022/01/20 04:36:13;;;;;;;20.05;3.60;;;3.00;99.90;;;;;;2097736;28;20012;-71
2022/01/20 04:37:15;;;;;;;16.63;3.78;;;2.90;99.90;;;;;;2088841;28;20029;-70
2022/01/20 04:38:15;;;;;;;14.70;3.75;;;3.00;99.90;;;;;;2080553;28;20059;-71
2022/01/20 04:39:21;;;;;;;13.98;3.38;;;2.90;99.90;;;;;;2088513;28;20032;-70
2022/01/20 04:40:22;;;;;;;11.70;3.08;;;2.90;99.90;;;;;;2096940;28;20369;-71
2022/01/20 04:41:24;;;;;;;16.75;3.60;;;2.90;99.90;;;;;;2088665;28;20044;-70
2022/01/20 04:42:27;;;;;;;15.40;3.67;;;2.90;99.90;;;;;;2080711;28;20026;-70
2022/01/20 04:43:27;;;;;;;14.80;3.50;;;2.90;99.90;;;;;;2088155;28;20033;-70
2022/01/20 04:44:44;;;;;;;18.42;3.65;;;2.90;99.90;;;;;;2088855;28;20063;-70
2022/01/20 04:45:52;;;;;;;12.40;3.38;;;2.90;99.90;;;;;;2088495;28;20033;-70
2022/01/20 04:47:01;;;;;;;18.85;3.65;;;2.80;99.90;;;;;;2081297;28;20076;-70
2022/01/20 04:57:20;;;;;;;16.05;3.10;;;3.00;99.90;;;;;;2091274;28;20029;-70
2022/01/20 04:58:21;;;;;;;19.00;3.45;;;3.00;99.90;;;;;;2088589;28;20033;-70
2022/01/20 04:59:23;;;;;;;14.93;3.35;;;3.00;99.90;;;;;;2080202;28;20037;-70
2022/01/20 05:00:25;;;;;;;17.70;3.53;;;3.00;99.90;;;;;;2088578;28;20032;-71
2022/01/20 05:01:46;;;;;;;13.95;3.30;;;3.00;99.90;;;;;;2091029;28;20029;-71
2022/01/20 05:02:55;;;;;;;16.55;3.25;;;3.00;99.90;;;;;;2088932;28;20542;-71
2022/01/20 05:03:57;;;;;;;12.98;3.20;;;3.00;99.90;;;;;;2088072;28;20246;-71
2022/01/20 05:05:20;;;;;;;16.95;3.45;;;3.00;99.90;;;;;;2097056;28;20027;-71
2022/01/20 05:06:25;;;;;;;19.08;3.80;;;3.00;99.90;;;;;;2097285;28;20124;-71
2022/01/20 05:07:28;;;;;;;15.35;3.20;;;3.00;99.90;;;;;;2088200;28;20044;-71
2022/01/20 05:08:30;;;;;;;17.40;3.13;;;3.00;99.90;;;;;;2080472;28;20055;-70
2022/01/20 05:09:34;;;;;;;16.88;3.42;;;3.00;99.90;;;;;;2080706;28;20108;-70
2022/01/20 05:10:35;;;;;;;24.25;3.33;;;2.90;99.90;;;;;;2088769;28;20070;-70
2022/01/20 05:11:42;;;;;;;20.10;3.55;;;3.00;99.90;;;;;;2087783;28;20033;-69
2022/01/20 05:13:49;;;;;;;17.08;3.25;;;2.90;99.90;;;;;;2088125;28;20024;-70
2022/01/20 05:14:49;;;;;;;20.10;3.47;;;3.00;99.90;;;;;;2088795;28;20041;-71
2022/01/20 05:15:50;;;;;;;22.45;3.85;;;3.00;99.90;;;;;;2089043;28;20024;-72
2022/01/20 05:16:53;;;;;;;18.17;3.33;;;3.00;99.90;;;;;;2089825;28;20086;-72
2022/01/20 05:17:55;;;;;;;18.83;3.22;;;3.10;99.90;;;;;;2081538;28;20424;-72
2022/01/20 05:18:56;;;;;;;17.02;3.25;;;3.10;99.90;;;;;;2074212;28;20420;-72
2022/01/20 05:19:56;;;;;;;20.83;3.58;;;3.10;99.90;;;;;;2089190;28;20064;-70
2022/01/20 05:20:57;;;;;;;19.45;3.47;;;3.10;99.90;;;;;;2089661;28;20021;-70
2022/01/20 05:22:00;;;;;;;19.40;3.58;;;3.10;99.90;;;;;;2089178;28;20025;-70
2022/01/20 05:23:06;;;;;;;21.92;3.28;;;3.20;99.90;;;;;;2082556;28;20021;-70
2022/01/20 05:24:08;;;;;;;14.75;2.83;;;3.20;99.90;;;;;;2091443;28;20021;-71
2022/01/20 05:25:09;;;;;;;22.40;3.30;;;3.20;99.90;;;;;;2085385;28;20029;-69
2022/01/20 05:26:10;;;;;;;18.13;3.28;;;3.20;99.90;;;;;;2083092;28;20033;-68
2022/01/20 05:27:10;;;;;;;19.58;2.97;;;3.30;99.90;;;;;;2083197;28;20021;-69
2022/01/20 05:28:11;;;;;;;16.33;3.60;;;3.30;99.90;;;;;;2090786;28;20083;-70
2022/01/20 05:29:14;;;;;;;17.73;3.28;;;3.30;99.90;;;;;;2090857;28;20043;-73
2022/01/20 05:30:15;;;;;;;17.17;3.25;;;3.40;99.90;;;;;;2082512;28;20135;-68
2022/01/20 05:31:36;;;;;;;23.33;3.70;;;3.40;99.90;;;;;;2093408;28;20024;-71
2022/01/20 05:32:36;;;;;;;20.17;3.60;;;3.40;99.90;;;;;;2082601;28;20057;-69
2022/01/20 05:33:37;;;;;;;18.73;3.22;;;3.40;99.90;;;;;;2082356;28;20017;-67
2022/01/20 05:34:38;;;;;;;20.50;3.70;;;3.40;99.90;;;;;;2093284;28;20040;-70
2022/01/20 05:35:39;;;;;;;18.45;3.33;;;3.40;99.90;;;;;;2093855;28;20025;-70
2022/01/20 05:36:40;;;;;;;20.00;3.33;;;3.40;99.90;;;;;;2085430;28;20030;-72
2022/01/20 05:37:41;;;;;;;19.20;3.83;;;3.50;99.90;;;;;;2089455;28;20021;-72
2022/01/20 05:38:42;;;;;;;16.90;3.47;;;3.50;99.90;;;;;;2073244;28;20034;-71
2022/01/20 05:39:43;;;;;;;18.35;3.28;;;3.50;99.90;;;;;;2080885;28;20025;-72
2022/01/20 05:40:46;;;;;;;21.23;3.75;;;3.50;99.90;;;;;;2088614;28;20029;-72
2022/01/20 05:41:46;;;;;;;17.05;3.40;;;3.50;99.90;;;;;;2080317;28;20068;-71
2022/01/20 05:42:56;;;;;;;22.92;3.70;;;3.50;99.90;;;;;;2088815;28;20107;-71
2022/01/20 05:43:57;;;;;;;24.60;3.72;;;3.50;99.90;;;;;;2080173;28;20033;-72
2022/01/20 05:44:58;;;;;;;23.52;3.60;;;3.50;99.90;;;;;;2080563;28;20032;-69
2022/01/20 05:45:59;;;;;;;21.92;3.35;;;3.50;99.90;;;;;;2072521;28;20020;-72
2022/01/20 05:47:05;;;;;;;23.27;3.80;;;3.40;99.90;;;;;;2081204;28;20520;-71
2022/01/20 05:48:48;;;;;;;23.52;3.40;;;3.40;99.90;;;;;;2071859;28;20033;-68
2022/01/20 05:50:05;;;;;;;22.92;4.05;;;3.40;99.90;;;;;;2063391;28;20018;-70
2022/01/20 05:51:06;;;;;;;22.60;3.58;;;3.40;99.90;;;;;;2055572;28;20050;-70
2022/01/20 05:52:07;;;;;;;14.88;3.58;;;3.40;99.90;;;;;;2055290;28;20055;-70
2022/01/20 05:53:08;;;;;;;20.25;3.65;;;3.40;99.90;;;;;;2065089;28;20031;-70
2022/01/20 05:54:11;;;;;;;20.23;3.63;;;3.40;99.90;;;;;;2079220;28;20561;-70
2022/01/20 05:55:16;;;;;;;22.77;3.88;;;3.50;99.90;;;;;;2088550;28;20029;-70
2022/01/20 05:56:17;;;;;;;20.10;3.95;;;3.50;99.90;;;;;;2088762;28;20383;-71
2022/01/20 05:57:19;;;;;;;20.77;4.20;;;3.50;99.90;;;;;;2088726;28;20095;-70
2022/01/20 05:58:26;;;;;;;17.52;3.55;;;3.50;99.90;;;;;;2088616;28;20024;-71
2022/01/20 05:59:29;;;;;;;19.80;3.92;;;3.50;99.90;;;;;;2080794;28;20083;-70
2022/01/20 06:00:30;;;;;;;21.63;4.20;;;3.50;99.90;;;;;;2080310;28;20132;-69
2022/01/20 06:01:37;;;;;;;19.73;4.00;;;3.50;99.90;;;;;;2088776;28;20075;-69
2022/01/20 06:03:58;;;;;;;17.20;3.53;;;3.50;99.90;;;;;;2090717;28;20084;-71
2022/01/20 06:05:02;;;;;;;17.92;3.97;;;3.50;99.90;;;;;;2083185;28;20021;-70
2022/01/20 06:06:13;;;;;;;18.05;3.70;;;3.60;99.90;;;;;;2091544;28;20029;-71
2022/01/20 06:07:13;;;;;;;20.42;3.90;;;3.60;99.90;;;;;;2091620;28;20025;-71
2022/01/20 06:08:14;;;;;;;20.13;3.42;;;3.60;99.90;;;;;;2083031;28;20055;-72
2022/01/20 06:09:15;;;;;;;21.88;3.92;;;3.60;99.90;;;;;;2091540;28;20094;-69
2022/01/20 06:10:15;;;;;;;20.15;3.90;;;3.60;99.90;;;;;;2091866;28;20029;-70
2022/01/20 06:11:16;;;;;;;18.15;3.78;;;3.60;99.90;;;;;;2082258;28;20029;-71
2022/01/20 06:12:17;;;;;;;22.13;3.90;;;3.70;99.90;;;;;;2073661;28;20026;-71
2022/01/20 06:13:18;;;;;;;22.55;3.63;;;3.70;99.90;;;;;;2065299;28;20069;-71
2022/01/20 06:14:19;;;;;;;19.50;4.03;;;3.70;99.90;;;;;;2081512;28;20526;-70
2022/01/20 06:15:20;;;;;;;22.50;4.03;;;3.70;99.90;;;;;;2081609;28;20035;-71
2022/01/20 06:16:20;;;;;;;21.30;4.22;;;3.70;99.90;;;;;;2089870;28;20021;-73
2022/01/20 06:17:27;;;;;;;21.63;3.70;;;3.70;99.90;;;;;;2098542;28;20020;-72
2022/01/20 06:18:31;;;;;;;20.30;3.80;;;3.70;99.90;;;;;;2090576;28;20033;-72
2022/01/20 06:19:32;;;;;;;20.33;3.92;;;3.70;99.90;;;;;;2090134;28;20462;-70
2022/01/20 06:20:33;;;;;;;24.35;4.07;;;3.70;99.90;;;;;;2090136;28;20156;-70
2022/01/20 06:21:34;;;;;;;19.48;3.90;;;3.70;99.90;;;;;;2098739;28;20025;-69
2022/01/20 06:22:34;;;;;;;15.60;4.00;;;3.60;99.90;;;;;;2090300;28;20021;-69
2022/01/20 06:23:36;;;;;;;21.05;4.35;;;3.60;99.90;;;;;;2081365;28;20037;-70
2022/01/20 06:24:36;;;;;;;23.35;4.22;;;3.60;99.90;;;;;;2081700;28;20088;-70
2022/01/20 06:25:37;;;;;;;21.27;3.70;;;3.60;99.90;;;;;;2081707;28;20119;-71
2022/01/20 06:26:38;;;;;;;20.55;4.18;;;3.60;99.90;;;;;;2089728;28;20146;-70
2022/01/20 06:27:38;;;;;;;21.95;4.13;;;3.50;99.90;;;;;;2089679;28;20040;-72
2022/01/20 06:28:42;;;;;;;19.92;3.97;;;3.50;99.90;;;;;;2089957;28;20039;-72
2022/01/20 06:29:44;;;;;;;22.52;4.25;;;3.50;99.90;;;;;;2089972;28;20025;-73
2022/01/20 06:30:45;;;;;;;22.40;4.45;;;3.50;99.90;;;;;;2081491;28;20499;-72
2022/01/20 06:31:51;;;;;;;23.02;4.22;;;3.50;99.90;;;;;;2089769;28;20029;-72
2022/01/20 06:32:53;;;;;;;23.23;4.32;;;3.50;99.90;;;;;;2090778;28;20079;-72
2022/01/20 06:34:01;;;;;;;23.30;4.25;;;3.50;99.90;;;;;;2082252;28;20101;-72
2022/01/20 06:35:02;;;;;;;25.23;4.70;;;3.40;99.90;;;;;;2090238;28;20029;-73
2022/01/20 06:36:04;;;;;;;23.90;4.40;;;3.40;99.90;;;;;;2090359;28;20128;-74
2022/01/20 06:37:04;;;;;;;22.02;4.15;;;3.40;99.90;;;;;;2089970;28;20067;-72
2022/01/20 06:38:06;;;;;;;21.55;4.60;;;3.40;99.90;;;;;;2089578;28;20091;-71
2022/01/20 06:39:06;;;;;;;22.10;4.07;;;3.30;99.90;;;;;;2081546;28;20505;-71
2022/01/20 06:40:13;;;;;;;23.35;4.68;;;3.20;99.90;;;;;;2074103;28;20022;-71
2022/01/20 06:41:15;;;;;;;25.90;4.90;;;3.10;99.90;;;;;;2082453;28;20026;-69
2022/01/20 06:42:17;;;;;;;29.45;5.03;;;3.10;99.90;;;;;;2089176;28;20110;-70
2022/01/20 06:43:18;;;;;;;26.67;4.72;;;3.10;99.90;;;;;;2081516;28;20030;-71
2022/01/20 06:44:21;;;;;;;24.52;5.00;;;3.00;99.90;;;;;;2089843;28;20036;-73
2022/01/20 06:45:23;;;;;;;23.88;5.47;;;3.00;99.90;;;;;;2089801;28;20044;-70
2022/01/20 06:46:30;;;;;;;25.50;4.72;;;3.00;99.90;;;;;;2089776;28;20031;-70
2022/01/20 06:47:49;;;;;;;26.02;5.22;;;2.90;99.90;;;;;;2081299;28;20519;-72
2022/01/20 06:48:50;;;;;;;21.70;5.20;;;2.90;99.90;;;;;;2075728;28;20122;-71